Time;durP1;ratioP1;P1;durP2;ratioP2;P2;SDS_P1;SDS_P2;PMS_P1;PMS_P2;Temp;Humidity;BMP_temperature;BMP_pressure;BME280_temperature;BME280_humidity;BME280_pressure;Samples;Min_cycle;Max_cycle;Signal;HPM_P1;HPM_P2
2022/06/08 00:00:10;;;;;;;2.90;2.40;;;21.90;99.90;;;;;;4243811;27;20213;-72
2022/06/08 00:02:14;;;;;;;3.83;2.80;;;21.90;99.90;;;;;;4241793;27;20266;-72
2022/06/08 00:04:17;;;;;;;3.40;2.00;;;21.90;99.90;;;;;;4244813;27;20710;-72
2022/06/08 00:06:21;;;;;;;2.40;2.05;;;21.90;99.90;;;;;;4243791;27;20217;-72
2022/06/08 00:08:23;;;;;;;3.50;2.97;;;21.90;99.90;;;;;;4244048;27;20237;-72
2022/06/08 00:10:25;;;;;;;2.80;2.42;;;21.90;99.90;;;;;;4244448;27;20266;-72
2022/06/08 00:12:28;;;;;;;2.40;2.03;;;21.90;99.90;;;;;;4244296;27;20217;-72
2022/06/08 00:14:31;;;;;;;2.55;2.30;;;21.80;99.90;;;;;;4244112;27;20217;-72
2022/06/08 00:16:34;;;;;;;3.13;2.40;;;21.80;99.90;;;;;;4244121;27;20273;-72
2022/06/08 00:18:39;;;;;;;3.85;2.80;;;21.80;99.90;;;;;;4243157;27;20258;-72
2022/06/08 00:20:41;;;;;;;3.33;2.38;;;21.80;99.90;;;;;;4242957;27;20258;-72
2022/06/08 00:22:43;;;;;;;2.60;2.33;;;21.80;99.90;;;;;;4241663;27;20274;-72
2022/06/08 00:24:46;;;;;;;3.78;2.75;;;21.90;99.90;;;;;;4243226;27;20221;-72
2022/06/08 00:26:48;;;;;;;2.78;2.35;;;21.80;99.90;;;;;;4243323;27;20217;-72
2022/06/08 00:28:51;;;;;;;2.50;1.88;;;21.80;99.90;;;;;;4244060;27;20305;-72
2022/06/08 00:30:54;;;;;;;2.72;2.15;;;21.80;99.90;;;;;;4243386;27;20216;-72
2022/06/08 00:32:57;;;;;;;3.72;2.83;;;21.80;99.90;;;;;;4243603;27;20217;-72
2022/06/08 00:35:00;;;;;;;2.85;2.30;;;21.80;99.90;;;;;;4243623;27;20229;-72
2022/06/08 00:37:03;;;;;;;3.72;2.20;;;21.80;99.90;;;;;;4241438;27;20213;-72
2022/06/08 00:39:06;;;;;;;3.55;2.53;;;21.80;99.90;;;;;;4243013;27;20217;-72
2022/06/08 00:41:32;;;;;;;2.78;2.40;;;21.80;99.90;;;;;;4243817;27;20624;-72
2022/06/08 00:43:36;;;;;;;2.63;2.17;;;21.80;99.90;;;;;;4242955;27;20293;-72
2022/06/08 00:45:39;;;;;;;4.65;3.20;;;21.80;99.90;;;;;;4242877;27;20269;-72
2022/06/08 00:47:45;;;;;;;5.38;2.50;;;21.80;99.90;;;;;;4243744;27;20262;-72
2022/06/08 00:49:53;;;;;;;3.35;2.42;;;21.80;99.90;;;;;;4243076;27;20732;-72
2022/06/08 00:51:57;;;;;;;2.65;2.40;;;21.80;99.90;;;;;;4243303;27;20697;-72
2022/06/08 00:54:02;;;;;;;3.00;2.70;;;21.80;99.90;;;;;;4240426;27;20313;-72
2022/06/08 00:56:10;;;;;;;3.22;2.72;;;21.80;99.90;;;;;;4243354;27;20225;-72
2022/06/08 00:58:18;;;;;;;3.38;2.40;;;21.80;99.90;;;;;;4243310;27;20226;-72
2022/06/08 01:00:24;;;;;;;4.57;2.45;;;21.70;99.90;;;;;;4242349;27;20792;-72
2022/06/08 01:02:27;;;;;;;2.92;2.58;;;21.70;99.90;;;;;;4243290;27;20669;-72
2022/06/08 01:04:31;;;;;;;2.85;2.55;;;21.80;99.90;;;;;;4243335;27;20232;-72
2022/06/08 01:06:35;;;;;;;3.13;2.38;;;21.70;99.90;;;;;;4243379;27;20209;-72
2022/06/08 01:08:40;;;;;;;3.42;2.70;;;21.70;99.90;;;;;;4243004;27;20232;-72
2022/06/08 01:10:46;;;;;;;2.95;2.25;;;21.70;99.90;;;;;;4242417;27;20695;-72
2022/06/08 01:12:49;;;;;;;3.38;2.20;;;21.70;99.90;;;;;;4242479;27;20273;-72
2022/06/08 01:14:51;;;;;;;2.80;2.50;;;21.70;99.90;;;;;;4241853;27;20288;-72
2022/06/08 01:16:59;;;;;;;3.13;2.20;;;21.70;99.90;;;;;;4241747;27;20269;-72
2022/06/08 01:19:02;;;;;;;3.53;2.65;;;21.70;99.90;;;;;;4241407;27;20216;-72
2022/06/08 01:21:37;;;;;;;3.33;2.63;;;21.70;99.90;;;;;;4242063;27;20209;-72
2022/06/08 01:23:41;;;;;;;2.75;2.35;;;21.70;99.90;;;;;;4241958;27;20274;-72
2022/06/08 01:25:56;;;;;;;2.70;2.17;;;21.70;99.90;;;;;;4243166;27;20221;-72
2022/06/08 01:28:09;;;;;;;2.95;2.28;;;21.60;99.90;;;;;;4240492;27;20213;-72
2022/06/08 01:30:21;;;;;;;3.55;2.50;;;21.70;99.90;;;;;;4240636;27;20278;-72
2022/06/08 01:32:29;;;;;;;3.40;2.47;;;21.70;99.90;;;;;;4242634;27;20281;-72
2022/06/08 01:34:40;;;;;;;3.25;2.40;;;21.70;99.90;;;;;;4243953;27;20213;-72
2022/06/08 01:36:57;;;;;;;2.65;2.13;;;21.60;99.90;;;;;;4242045;27;20283;-72
2022/06/08 01:39:05;;;;;;;2.90;2.30;;;21.60;99.90;;;;;;4242514;27;20225;-72
2022/06/08 01:41:31;;;;;;;3.75;2.90;;;21.70;99.90;;;;;;4242990;27;20234;-72
2022/06/08 01:43:47;;;;;;;3.05;2.35;;;21.60;99.90;;;;;;4239478;27;20228;-72
2022/06/08 01:45:57;;;;;;;3.35;2.20;;;21.70;99.90;;;;;;4241202;27;20261;-72
2022/06/08 01:48:20;;;;;;;2.83;2.33;;;21.70;99.90;;;;;;4242196;27;20209;-72
2022/06/08 01:50:27;;;;;;;3.90;2.50;;;21.60;99.90;;;;;;4243677;27;20212;-72
2022/06/08 01:52:39;;;;;;;4.13;2.47;;;21.60;99.90;;;;;;4242205;27;20266;-72
2022/06/08 01:54:58;;;;;;;4.00;2.42;;;21.60;99.90;;;;;;4243894;27;20253;-72
2022/06/08 01:57:12;;;;;;;3.28;2.38;;;21.60;99.90;;;;;;4243433;27;20656;-72
2022/06/08 01:59:26;;;;;;;2.08;1.85;;;21.60;99.90;;;;;;4243733;27;20285;-72
2022/06/08 02:01:36;;;;;;;2.78;2.15;;;21.60;99.90;;;;;;4240724;27;20725;-72
2022/06/08 02:03:42;;;;;;;3.70;2.22;;;21.60;99.90;;;;;;4242467;27;20240;-72
2022/06/08 02:05:57;;;;;;;2.50;2.05;;;21.60;99.90;;;;;;4240790;27;20217;-72
2022/06/08 02:08:05;;;;;;;2.42;2.03;;;21.60;99.90;;;;;;4242588;27;20236;-72
2022/06/08 02:10:18;;;;;;;3.60;2.17;;;21.60;99.90;;;;;;4241535;27;20265;-72
2022/06/08 02:12:20;;;;;;;3.13;2.20;;;21.60;99.90;;;;;;4241956;27;21049;-72
2022/06/08 02:14:30;;;;;;;2.80;2.00;;;21.60;99.90;;;;;;4242566;27;20220;-72
2022/06/08 02:16:38;;;;;;;3.53;2.22;;;21.60;99.90;;;;;;4240043;27;20270;-72
2022/06/08 02:18:44;;;;;;;2.75;2.30;;;21.60;99.90;;;;;;4241382;27;20742;-72
2022/06/08 02:20:51;;;;;;;2.38;2.00;;;21.60;99.90;;;;;;4241712;28;20217;-73
2022/06/08 02:23:01;;;;;;;2.35;2.15;;;21.60;99.90;;;;;;4240273;28;20230;-72
2022/06/08 02:25:13;;;;;;;3.22;2.20;;;21.60;99.90;;;;;;4241752;28;20232;-72
2022/06/08 02:27:20;;;;;;;2.90;2.10;;;21.60;99.90;;;;;;4242619;28;20269;-72
2022/06/08 02:29:26;;;;;;;3.42;2.35;;;21.60;99.90;;;;;;4241927;28;20270;-72
2022/06/08 02:31:33;;;;;;;2.55;2.05;;;21.60;99.90;;;;;;4242462;28;20265;-73
2022/06/08 02:36:07;;;;;;;2.75;2.47;;;21.60;99.90;;;;;;4241854;28;20989;-72
2022/06/08 02:38:12;;;;;;;3.20;2.60;;;21.60;99.90;;;;;;4243092;28;20213;-73
2022/06/08 02:40:19;;;;;;;2.83;2.40;;;21.60;99.90;;;;;;4242150;28;20262;-72
2022/06/08 02:42:26;;;;;;;2.75;2.30;;;21.60;99.90;;;;;;4243202;28;20269;-72
2022/06/08 02:44:31;;;;;;;3.05;2.72;;;21.60;99.90;;;;;;4240192;28;20234;-72
2022/06/08 02:46:41;;;;;;;2.50;2.20;;;21.60;99.90;;;;;;4243588;28;20217;-72
2022/06/08 02:48:43;;;;;;;4.65;2.78;;;21.60;99.90;;;;;;4243377;28;20209;-72
2022/06/08 02:50:50;;;;;;;2.60;2.00;;;21.60;99.90;;;;;;4242853;28;20242;-72
2022/06/08 02:53:05;;;;;;;2.72;2.20;;;21.50;99.90;;;;;;4242885;28;20290;-72
2022/06/08 02:55:18;;;;;;;3.10;2.10;;;21.50;99.90;;;;;;4241256;28;20666;-72
2022/06/08 02:57:28;;;;;;;3.67;2.20;;;21.50;99.90;;;;;;4241463;28;20313;-72
2022/06/08 02:59:39;;;;;;;3.50;2.08;;;21.50;99.90;;;;;;4242333;28;20224;-72
2022/06/08 03:01:46;;;;;;;3.22;2.42;;;21.60;99.90;;;;;;4243301;28;20213;-72
2022/06/08 03:03:53;;;;;;;3.78;2.20;;;21.50;99.90;;;;;;4242332;28;20217;-72
2022/06/08 03:06:01;;;;;;;3.47;2.20;;;21.50;99.90;;;;;;4243364;28;20632;-72
2022/06/08 03:08:08;;;;;;;3.97;2.30;;;21.50;99.90;;;;;;4241903;27;20229;-72
2022/06/08 03:10:14;;;;;;;2.53;2.00;;;21.50;99.90;;;;;;4243668;27;20602;-72
2022/06/08 03:12:31;;;;;;;2.83;2.10;;;21.60;99.90;;;;;;4246057;27;20665;-72
2022/06/08 03:14:34;;;;;;;3.30;2.17;;;21.50;99.90;;;;;;4245803;27;20254;-72
2022/06/08 03:16:39;;;;;;;3.00;2.00;;;21.50;99.90;;;;;;4244757;27;20213;-72
2022/06/08 03:18:41;;;;;;;2.65;2.13;;;21.60;99.90;;;;;;4246709;27;20221;-72
2022/06/08 03:20:44;;;;;;;3.85;2.08;;;21.60;99.90;;;;;;4246937;27;20205;-72
2022/06/08 03:22:47;;;;;;;5.55;2.45;;;21.50;99.90;;;;;;4246283;27;20269;-72
2022/06/08 03:24:49;;;;;;;2.35;1.92;;;21.60;99.90;;;;;;4246370;27;20237;-72
2022/06/08 03:26:54;;;;;;;3.08;2.20;;;21.50;99.90;;;;;;4242318;27;20278;-72
2022/06/08 03:28:58;;;;;;;2.55;2.20;;;21.60;99.90;;;;;;4246617;27;20234;-72
2022/06/08 03:31:00;;;;;;;3.30;2.30;;;21.60;99.90;;;;;;4245168;27;20221;-72
2022/06/08 03:33:03;;;;;;;2.58;2.05;;;21.50;99.90;;;;;;4246763;27;20273;-72
2022/06/08 03:35:06;;;;;;;3.90;2.20;;;21.50;99.90;;;;;;4245972;27;20216;-72
2022/06/08 03:37:09;;;;;;;2.55;2.08;;;21.50;99.90;;;;;;4245723;27;20273;-72
2022/06/08 03:39:12;;;;;;;3.05;2.28;;;21.60;99.90;;;;;;4245888;27;20246;-72
2022/06/08 03:41:14;;;;;;;2.78;1.88;;;21.50;99.90;;;;;;4245359;27;20217;-72
2022/06/08 03:43:17;;;;;;;2.35;2.15;;;21.60;99.90;;;;;;4243802;27;20538;-72
2022/06/08 03:45:21;;;;;;;2.15;1.88;;;21.60;99.90;;;;;;4245894;27;20718;-72
2022/06/08 03:47:28;;;;;;;3.00;2.30;;;21.60;99.90;;;;;;4243120;27;20229;-72
2022/06/08 03:49:30;;;;;;;3.40;1.85;;;21.60;99.90;;;;;;4246237;27;20269;-72
2022/06/08 03:51:34;;;;;;;4.32;2.30;;;21.60;99.90;;;;;;4246399;27;20242;-72
2022/06/08 03:53:42;;;;;;;3.42;2.25;;;21.60;99.90;;;;;;4243181;27;20242;-72
2022/06/08 03:55:46;;;;;;;2.78;2.17;;;21.60;99.90;;;;;;4245423;27;20348;-72
2022/06/08 03:57:49;;;;;;;4.50;2.25;;;21.60;99.90;;;;;;4245820;27;20221;-72
2022/06/08 03:59:52;;;;;;;2.33;1.80;;;21.60;99.90;;;;;;4243547;27;20221;-72
2022/06/08 04:01:56;;;;;;;3.63;2.58;;;21.60;99.90;;;;;;4244895;27;20282;-72
2022/06/08 04:03:58;;;;;;;3.05;2.20;;;21.50;99.90;;;;;;4244555;27;20664;-72
2022/06/08 04:06:00;;;;;;;3.08;2.30;;;21.50;99.90;;;;;;4245449;27;20233;-72
2022/06/08 04:08:04;;;;;;;2.28;1.98;;;21.50;99.90;;;;;;4245647;27;20232;-72
2022/06/08 04:10:09;;;;;;;3.28;2.08;;;21.50;99.90;;;;;;4245792;27;20292;-72
2022/06/08 04:12:12;;;;;;;3.22;2.40;;;21.50;99.90;;;;;;4245552;27;20225;-72
2022/06/08 04:14:14;;;;;;;4.25;2.00;;;21.50;99.90;;;;;;4240940;27;20212;-72
2022/06/08 04:16:16;;;;;;;3.67;2.15;;;21.50;99.90;;;;;;4245597;27;20242;-72
2022/06/08 04:18:22;;;;;;;3.08;2.30;;;21.60;99.90;;;;;;4243429;27;20213;-72
2022/06/08 04:20:24;;;;;;;2.10;1.77;;;21.50;99.90;;;;;;4242621;27;20258;-72
2022/06/08 04:22:31;;;;;;;2.78;2.03;;;21.50;99.90;;;;;;4245529;27;20258;-72
2022/06/08 04:24:34;;;;;;;4.22;2.25;;;21.50;99.90;;;;;;4245092;27;20269;-72
2022/06/08 04:26:36;;;;;;;3.75;2.08;;;21.50;99.90;;;;;;4244990;27;20270;-72
2022/06/08 04:28:39;;;;;;;3.95;2.20;;;21.50;99.90;;;;;;4245251;27;20649;-72
2022/06/08 04:30:42;;;;;;;3.10;1.90;;;21.50;99.90;;;;;;4245576;27;20213;-72
2022/06/08 04:32:44;;;;;;;2.88;2.00;;;21.50;99.90;;;;;;4244660;27;20242;-72
2022/06/08 04:34:48;;;;;;;2.65;1.90;;;21.50;99.90;;;;;;4244767;27;20654;-72
2022/06/08 04:36:50;;;;;;;2.72;1.98;;;21.50;99.90;;;;;;4244992;27;20238;-72
2022/06/08 04:38:52;;;;;;;2.50;2.05;;;21.50;99.90;;;;;;4243547;27;20281;-72
2022/06/08 04:40:55;;;;;;;2.75;2.13;;;21.50;99.90;;;;;;4245411;27;20278;-72
2022/06/08 04:42:57;;;;;;;3.42;2.10;;;21.50;99.90;;;;;;4244630;27;20613;-72
2022/06/08 04:45:00;;;;;;;2.60;2.20;;;21.50;99.90;;;;;;4243317;27;20237;-72
2022/06/08 04:47:02;;;;;;;4.13;1.90;;;21.50;99.90;;;;;;4245127;27;20216;-72
2022/06/08 04:49:04;;;;;;;2.60;1.88;;;21.50;99.90;;;;;;4244666;27;20277;-72
2022/06/08 04:51:09;;;;;;;3.13;2.33;;;21.50;99.90;;;;;;4243051;27;20973;-72
2022/06/08 04:53:12;;;;;;;5.47;2.08;;;21.50;99.90;;;;;;4244892;27;20278;-72
2022/06/08 04:55:15;;;;;;;3.03;1.92;;;21.60;99.90;;;;;;4243751;27;20220;-72
2022/06/08 04:57:18;;;;;;;2.70;1.92;;;21.60;99.90;;;;;;4244861;27;20619;-72
2022/06/08 04:59:20;;;;;;;4.22;2.17;;;21.60;99.90;;;;;;4244598;27;20265;-72
2022/06/08 05:01:22;;;;;;;3.10;2.03;;;21.60;99.90;;;;;;4244417;27;20221;-72
2022/06/08 05:03:25;;;;;;;2.30;2.10;;;21.60;99.90;;;;;;4243309;27;20557;-72
2022/06/08 05:05:31;;;;;;;3.97;2.10;;;21.60;99.90;;;;;;4244805;27;20896;-72
2022/06/08 05:07:35;;;;;;;3.42;2.40;;;21.50;99.90;;;;;;4243392;27;20985;-72
2022/06/08 05:09:37;;;;;;;3.00;2.70;;;21.50;99.90;;;;;;4242843;27;20217;-72
2022/06/08 05:11:40;;;;;;;2.72;2.20;;;21.60;99.90;;;;;;4242084;27;20665;-72
2022/06/08 05:13:42;;;;;;;4.68;2.88;;;21.60;99.90;;;;;;4240917;27;20653;-72
2022/06/08 05:15:45;;;;;;;3.70;2.53;;;21.60;99.90;;;;;;4243142;27;20312;-72
2022/06/08 05:17:48;;;;;;;3.05;2.22;;;21.50;99.90;;;;;;4243006;27;20266;-72
2022/06/08 05:19:50;;;;;;;3.88;2.38;;;21.60;99.90;;;;;;4243183;27;20250;-72
2022/06/08 05:21:52;;;;;;;3.38;2.60;;;21.60;99.90;;;;;;4243718;27;20221;-72
2022/06/08 05:23:56;;;;;;;4.25;2.97;;;21.60;99.90;;;;;;4242918;27;20213;-72
2022/06/08 05:25:59;;;;;;;5.07;3.05;;;21.60;99.90;;;;;;4240004;27;20254;-72
2022/06/08 05:28:01;;;;;;;4.35;2.78;;;21.60;99.90;;;;;;4241604;27;20250;-72
2022/06/08 05:30:05;;;;;;;4.05;2.83;;;21.60;99.90;;;;;;4242187;27;20714;-71
2022/06/08 05:32:08;;;;;;;3.60;2.83;;;21.60;99.90;;;;;;4242059;27;20216;-72
2022/06/08 05:34:10;;;;;;;3.70;2.70;;;21.60;99.90;;;;;;4243551;27;20217;-72
2022/06/08 05:36:13;;;;;;;5.15;3.13;;;21.70;99.90;;;;;;4243061;27;20225;-72
2022/06/08 05:38:15;;;;;;;3.45;2.90;;;21.60;99.90;;;;;;4242257;27;20266;-72
2022/06/08 05:40:19;;;;;;;4.68;2.80;;;21.70;99.90;;;;;;4243138;27;20253;-72
2022/06/08 05:42:23;;;;;;;3.35;3.00;;;21.60;99.90;;;;;;4241627;27;20274;-72
2022/06/08 05:44:25;;;;;;;3.92;3.30;;;21.70;99.90;;;;;;4242687;27;20224;-72
2022/06/08 05:46:28;;;;;;;5.88;3.60;;;21.70;99.90;;;;;;4242202;27;20236;-72
2022/06/08 05:48:30;;;;;;;3.47;3.03;;;21.70;99.90;;;;;;4242881;27;20209;-72
2022/06/08 05:50:33;;;;;;;5.32;3.13;;;21.70;99.90;;;;;;4241960;27;20277;-72
2022/06/08 05:52:35;;;;;;;4.25;3.15;;;21.70;99.90;;;;;;4243134;27;20273;-72
2022/06/08 05:54:38;;;;;;;4.78;3.47;;;21.70;99.90;;;;;;4242876;27;20277;-72
2022/06/08 05:56:41;;;;;;;3.83;3.28;;;21.70;99.90;;;;;;4241857;27;20281;-72
2022/06/08 05:58:44;;;;;;;5.10;2.90;;;21.70;99.90;;;;;;4241521;27;20217;-72
2022/06/08 06:00:46;;;;;;;4.65;3.00;;;21.70;99.90;;;;;;4235383;27;20266;-72
2022/06/08 06:02:48;;;;;;;5.03;3.03;;;21.70;99.90;;;;;;4237200;27;20542;-72
2022/06/08 06:04:51;;;;;;;3.38;2.80;;;21.70;99.90;;;;;;4241926;27;20262;-72
2022/06/08 06:06:53;;;;;;;4.63;3.00;;;21.70;99.90;;;;;;4242325;27;20264;-72
2022/06/08 06:08:57;;;;;;;4.32;3.13;;;21.70;99.90;;;;;;4241476;27;20301;-72
2022/06/08 06:10:59;;;;;;;5.25;3.15;;;21.70;99.90;;;;;;4242114;27;20220;-72
2022/06/08 06:13:03;;;;;;;5.68;3.30;;;21.70;99.90;;;;;;4241570;27;20278;-72
2022/06/08 06:15:07;;;;;;;3.90;3.05;;;21.70;99.90;;;;;;4242684;27;20212;-72
2022/06/08 06:17:09;;;;;;;5.38;2.85;;;21.70;99.90;;;;;;4238572;27;20205;-72
2022/06/08 06:19:12;;;;;;;6.13;3.30;;;21.70;99.90;;;;;;4240785;27;20221;-72
2022/06/08 06:21:20;;;;;;;4.97;3.10;;;21.70;99.90;;;;;;4242365;28;20229;-72
2022/06/08 06:23:22;;;;;;;6.10;3.28;;;21.70;99.90;;;;;;4241764;28;20269;-72
2022/06/08 06:25:25;;;;;;;4.40;2.90;;;21.80;99.90;;;;;;4242089;28;20216;-72
2022/06/08 06:27:27;;;;;;;4.53;3.15;;;21.80;99.90;;;;;;4242003;28;20245;-72
2022/06/08 06:29:31;;;;;;;4.40;3.13;;;21.70;99.90;;;;;;4242258;28;20826;-72
2022/06/08 06:31:40;;;;;;;5.13;2.92;;;21.70;99.90;;;;;;4241644;28;20209;-72
2022/06/08 06:33:43;;;;;;;4.93;3.20;;;21.70;99.90;;;;;;4239621;28;20217;-72
2022/06/08 06:35:45;;;;;;;5.10;3.00;;;21.70;99.90;;;;;;4241946;28;20217;-72
2022/06/08 06:37:48;;;;;;;4.72;3.05;;;21.70;99.90;;;;;;4241005;28;20209;-72
2022/06/08 06:39:51;;;;;;;4.18;3.15;;;21.70;99.90;;;;;;4241502;28;20212;-72
2022/06/08 06:41:54;;;;;;;3.38;2.67;;;21.70;99.90;;;;;;4242337;27;20216;-72
2022/06/08 06:43:57;;;;;;;5.50;3.22;;;21.80;99.90;;;;;;4245138;27;20594;-72
2022/06/08 06:46:01;;;;;;;4.25;2.88;;;21.80;99.90;;;;;;4245286;27;20266;-72
2022/06/08 06:48:04;;;;;;;4.13;2.97;;;21.70;99.90;;;;;;4245166;27;20220;-71
2022/06/08 06:50:08;;;;;;;6.30;3.33;;;21.80;99.90;;;;;;4242363;27;20266;-72
2022/06/08 06:52:12;;;;;;;7.47;3.10;;;21.80;99.90;;;;;;4243170;27;20729;-72
2022/06/08 06:54:14;;;;;;;4.45;3.10;;;21.80;99.90;;;;;;4240408;27;20279;-72
2022/06/08 06:56:16;;;;;;;7.43;3.42;;;21.70;99.90;;;;;;4241883;27;20298;-72
2022/06/08 06:58:18;;;;;;;6.28;3.47;;;21.80;99.90;;;;;;4239882;27;20274;-73
2022/06/08 07:00:21;;;;;;;4.82;2.85;;;21.80;99.90;;;;;;4242749;27;20224;-73
2022/06/08 07:02:25;;;;;;;6.07;3.10;;;21.80;99.90;;;;;;4241117;27;20213;-72
2022/06/08 07:04:27;;;;;;;4.15;3.03;;;21.90;99.90;;;;;;4241670;27;20273;-73
2022/06/08 07:06:30;;;;;;;5.05;3.10;;;21.90;99.90;;;;;;4241674;27;20738;-72
2022/06/08 07:08:33;;;;;;;4.88;3.08;;;21.80;99.90;;;;;;4242640;27;20270;-72
2022/06/08 07:10:36;;;;;;;4.57;2.80;;;21.90;99.90;;;;;;4246170;27;20221;-72
2022/06/08 07:12:39;;;;;;;4.20;3.17;;;22.00;99.90;;;;;;4240846;27;20217;-72
2022/06/08 07:14:41;;;;;;;5.47;3.08;;;22.00;99.90;;;;;;4240608;27;20221;-72
2022/06/08 07:16:45;;;;;;;6.57;3.25;;;22.00;99.90;;;;;;4241103;27;20209;-72
2022/06/08 07:18:49;;;;;;;5.40;2.92;;;22.00;99.90;;;;;;4246767;27;20213;-72
2022/06/08 07:20:51;;;;;;;5.15;2.88;;;22.00;99.90;;;;;;4244497;27;20217;-73
2022/06/08 07:22:53;;;;;;;6.10;2.92;;;22.10;99.90;;;;;;4242391;27;20676;-73
2022/06/08 07:24:56;;;;;;;5.97;3.00;;;22.10;99.90;;;;;;4242189;27;20664;-73
2022/06/08 07:26:58;;;;;;;5.57;3.13;;;22.10;99.90;;;;;;4242513;27;20629;-73
2022/06/08 07:29:01;;;;;;;4.28;2.65;;;22.20;99.90;;;;;;4240293;27;20250;-73
2022/06/08 07:31:03;;;;;;;3.40;2.67;;;22.20;99.90;;;;;;4241707;27;20269;-74
2022/06/08 07:33:06;;;;;;;6.13;3.10;;;22.20;99.90;;;;;;4239560;27;20242;-74
2022/06/08 07:35:12;;;;;;;5.40;3.13;;;22.30;99.90;;;;;;4243571;27;20285;-75
2022/06/08 07:37:15;;;;;;;5.65;3.17;;;22.20;99.90;;;;;;4241414;27;20213;-73
2022/06/08 07:39:19;;;;;;;5.30;2.95;;;22.20;99.90;;;;;;4243898;27;20250;-74
2022/06/08 07:41:21;;;;;;;4.32;2.90;;;22.20;99.90;;;;;;4243057;27;20308;-72
2022/06/08 07:43:24;;;;;;;4.68;3.15;;;22.20;99.90;;;;;;4239630;27;20665;-72
2022/06/08 07:45:26;;;;;;;6.32;3.05;;;22.20;99.90;;;;;;4240687;27;20322;-71
2022/06/08 07:47:28;;;;;;;3.70;2.55;;;22.10;99.90;;;;;;4225610;27;20237;-72
2022/06/08 07:49:39;;;;;;;5.20;2.72;;;22.10;99.90;;;;;;4238968;27;20263;-72
2022/06/08 07:51:43;;;;;;;4.88;2.88;;;22.30;99.90;;;;;;4240638;27;20618;-71
2022/06/08 07:53:46;;;;;;;7.70;3.08;;;22.30;99.90;;;;;;4239685;27;20217;-72
2022/06/08 07:55:48;;;;;;;5.93;3.08;;;22.30;99.90;;;;;;4236577;27;20217;-72
2022/06/08 07:57:50;;;;;;;6.75;3.33;;;22.10;99.90;;;;;;4238112;27;20261;-72
2022/06/08 07:59:53;;;;;;;7.00;3.17;;;22.20;99.90;;;;;;4229166;27;20205;-72
2022/06/08 08:01:55;;;;;;;7.35;2.85;;;22.30;99.90;;;;;;4242896;27;20224;-73
2022/06/08 08:03:58;;;;;;;4.05;2.38;;;22.30;99.90;;;;;;4234376;27;20214;-72
2022/06/08 08:06:01;;;;;;;9.32;3.25;;;22.30;99.90;;;;;;4238237;27;20213;-73
2022/06/08 08:08:06;;;;;;;5.55;2.72;;;22.20;99.90;;;;;;4238324;27;20661;-73
2022/06/08 08:10:13;;;;;;;3.92;2.65;;;22.30;99.90;;;;;;4238410;27;20238;-73
2022/06/08 08:12:16;;;;;;;7.38;2.83;;;22.40;99.90;;;;;;4236230;27;20274;-74
2022/06/08 08:14:19;;;;;;;6.97;3.05;;;22.30;99.90;;;;;;4237765;27;20277;-73
2022/06/08 08:16:22;;;;;;;6.30;3.22;;;22.40;99.90;;;;;;4234741;27;20225;-72
2022/06/08 08:18:24;;;;;;;5.35;2.83;;;22.40;99.90;;;;;;4238789;27;20209;-73
2022/06/08 08:20:28;;;;;;;6.18;2.97;;;22.40;99.90;;;;;;4235033;27;20217;-73
2022/06/08 08:22:31;;;;;;;5.80;2.70;;;22.40;99.90;;;;;;4240375;27;20225;-71
2022/06/08 08:24:34;;;;;;;4.75;2.90;;;22.40;99.90;;;;;;4237871;27;20266;-72
2022/06/08 08:26:37;;;;;;;4.95;2.65;;;22.50;99.90;;;;;;4242445;27;20225;-72
2022/06/08 08:28:39;;;;;;;5.07;2.78;;;22.40;99.90;;;;;;4239644;27;20691;-72
2022/06/08 08:30:41;;;;;;;5.40;2.78;;;22.40;99.90;;;;;;4238363;27;20243;-72
2022/06/08 08:32:44;;;;;;;8.30;3.28;;;22.40;99.90;;;;;;4240013;27;20217;-74
2022/06/08 08:34:46;;;;;;;4.25;2.80;;;22.50;99.90;;;;;;4238445;27;20217;-76
2022/06/08 08:36:48;;;;;;;10.85;3.17;;;22.40;99.90;;;;;;4239056;27;20792;-76
2022/06/08 08:38:51;;;;;;;8.07;2.90;;;22.30;99.90;;;;;;4237022;27;20355;-75
2022/06/08 08:40:58;;;;;;;4.07;2.58;;;22.30;99.90;;;;;;4242461;27;20657;-73
2022/06/08 08:43:00;;;;;;;6.20;2.70;;;22.40;99.90;;;;;;4235188;27;20213;-72
2022/06/08 08:45:05;;;;;;;6.35;2.80;;;22.40;99.90;;;;;;4240671;27;20209;-73
2022/06/08 08:47:16;;;;;;;6.10;2.90;;;22.40;99.90;;;;;;4240566;27;20736;-72
2022/06/08 08:49:20;;;;;;;6.78;2.90;;;22.40;99.90;;;;;;4225148;27;20205;-72
2022/06/08 08:51:26;;;;;;;8.65;3.10;;;22.40;99.90;;;;;;4239690;27;20235;-73
2022/06/08 08:53:34;;;;;;;19.33;5.55;;;22.40;99.90;;;;;;4237401;27;20536;-72
2022/06/08 08:55:43;;;;;;;10.82;4.82;;;22.30;99.90;;;;;;4232750;27;20208;-72
2022/06/08 08:57:56;;;;;;;12.05;4.00;;;22.40;99.90;;;;;;4232950;27;20217;-79
2022/06/08 09:00:02;;;;;;;32.65;8.38;;;22.40;99.90;;;;;;4236233;27;20295;-82
2022/06/08 09:02:11;;;;;;;25.75;5.53;;;22.40;99.90;;;;;;4238494;27;20597;-80
2022/06/08 09:04:23;;;;;;;20.00;6.15;;;22.40;99.90;;;;;;4237885;27;20221;-80
2022/06/08 09:06:28;;;;;;;29.20;7.40;;;22.40;99.90;;;;;;4232559;27;20265;-78
2022/06/08 09:08:30;;;;;;;20.17;6.03;;;22.20;99.90;;;;;;4237517;27;20286;-77
2022/06/08 09:10:33;;;;;;;13.35;4.15;;;22.20;99.90;;;;;;4239142;27;20717;-72
2022/06/08 09:12:35;;;;;;;13.18;4.15;;;22.30;99.90;;;;;;4232469;27;20254;-72
2022/06/08 09:14:50;;;;;;;24.05;6.10;;;22.40;99.90;;;;;;4232039;27;20221;-72
2022/06/08 09:17:06;;;;;;;17.38;5.07;;;22.30;99.90;;;;;;4234561;27;20286;-71
2022/06/08 09:19:31;;;;;;;15.45;4.70;;;22.40;99.90;;;;;;4241334;27;20221;-71
2022/06/08 09:21:36;;;;;;;13.13;4.43;;;22.40;99.90;;;;;;4239743;27;20262;-71
2022/06/08 09:23:42;;;;;;;17.13;4.72;;;22.40;99.90;;;;;;4240450;27;20224;-71
2022/06/08 09:25:44;;;;;;;21.30;4.95;;;22.40;99.90;;;;;;4234280;27;20270;-72
2022/06/08 09:27:50;;;;;;;12.57;4.50;;;22.40;99.90;;;;;;4238752;27;20225;-72
2022/06/08 09:30:15;;;;;;;19.45;4.50;;;22.40;99.90;;;;;;4237209;27;20258;-71
2022/06/08 09:32:31;;;;;;;27.85;7.75;;;22.40;99.90;;;;;;4242219;27;20281;-72
2022/06/08 09:34:33;;;;;;;22.48;7.40;;;22.40;99.90;;;;;;4238372;27;20221;-72
2022/06/08 09:36:36;;;;;;;15.45;4.88;;;22.40;99.90;;;;;;4238501;27;20221;-72
2022/06/08 09:38:40;;;;;;;19.50;5.53;;;22.30;99.90;;;;;;4239643;27;20269;-72
2022/06/08 09:40:50;;;;;;;14.55;4.55;;;22.40;99.90;;;;;;4233696;27;20209;-72
2022/06/08 09:43:02;;;;;;;18.08;5.30;;;22.30;99.90;;;;;;4237579;27;20220;-72
2022/06/08 09:45:19;;;;;;;24.10;6.70;;;22.40;99.90;;;;;;4236187;27;20213;-72
2022/06/08 09:52:27;;;;;;;45.35;10.70;;;22.50;99.90;;;;;;4232613;27;20201;-72
2022/06/08 09:54:40;;;;;;;26.48;8.13;;;22.50;99.90;;;;;;4232733;27;20258;-71
2022/06/08 09:56:55;;;;;;;31.05;9.45;;;22.40;99.90;;;;;;4235623;27;20328;-72
2022/06/08 09:59:08;;;;;;;42.25;11.02;;;22.30;99.90;;;;;;4236894;27;20217;-72
2022/06/08 10:01:28;;;;;;;35.95;9.63;;;22.20;99.90;;;;;;4235758;27;20217;-72
2022/06/08 10:03:46;;;;;;;27.33;8.43;;;22.30;99.90;;;;;;4229846;27;20212;-73
2022/06/08 10:05:57;;;;;;;53.70;14.90;;;22.20;99.90;;;;;;4235712;27;20221;-78
2022/06/08 10:08:12;;;;;;;28.10;9.18;;;22.20;99.90;;;;;;4234222;27;20259;-79
2022/06/08 10:10:24;;;;;;;24.60;8.10;;;22.30;99.90;;;;;;4237557;27;20214;-79
2022/06/08 10:12:37;;;;;;;24.60;7.72;;;22.30;99.90;;;;;;4237950;27;20212;-78
2022/06/08 10:14:46;;;;;;;22.58;7.00;;;22.40;99.90;;;;;;4235376;27;20217;-78
2022/06/08 10:16:54;;;;;;;23.85;8.25;;;22.50;99.90;;;;;;4232549;27;20220;-75
2022/06/08 10:19:00;;;;;;;22.30;6.82;;;22.40;99.90;;;;;;4239176;27;20208;-76
2022/06/08 10:21:10;;;;;;;21.73;6.70;;;22.50;99.90;;;;;;4239339;27;20205;-77
2022/06/08 10:23:24;;;;;;;23.98;7.80;;;22.50;99.90;;;;;;4236832;27;20212;-77
2022/06/08 10:25:34;;;;;;;28.40;9.32;;;22.50;99.90;;;;;;4237630;27;20245;-75
2022/06/08 10:27:42;;;;;;;32.45;10.60;;;22.50;99.90;;;;;;4239829;27;20254;-76
2022/06/08 10:29:50;;;;;;;34.88;9.48;;;22.40;99.90;;;;;;4233952;27;20722;-77
2022/06/08 10:32:00;;;;;;;37.83;10.07;;;22.50;99.90;;;;;;4228470;27;20246;-78
2022/06/08 10:34:09;;;;;;;36.47;10.57;;;22.60;99.90;;;;;;4231820;27;20547;-77
2022/06/08 10:36:12;;;;;;;38.38;9.55;;;22.40;99.90;;;;;;4240873;27;20212;-77
2022/06/08 10:38:20;;;;;;;32.78;8.55;;;22.50;99.90;;;;;;4235734;27;20213;-77
2022/06/08 10:40:26;;;;;;;21.13;7.53;;;22.50;99.90;;;;;;4240124;27;20617;-78
2022/06/08 10:42:40;;;;;;;25.85;8.18;;;22.50;99.90;;;;;;4240817;27;20598;-78
2022/06/08 10:44:51;;;;;;;29.90;8.50;;;22.50;99.90;;;;;;4237248;27;20618;-78
2022/06/08 10:46:56;;;;;;;29.40;8.63;;;22.40;99.90;;;;;;4235425;27;20614;-81
2022/06/08 10:48:58;;;;;;;24.77;8.77;;;22.50;99.90;;;;;;4234524;27;20262;-79
2022/06/08 10:51:45;;;;;;;37.38;8.98;;;22.50;99.90;;;;;;4223082;27;20214;-75
2022/06/08 10:56:32;;;;;;;28.92;8.52;;;22.40;99.90;;;;;;4240278;27;20985;-75
2022/06/08 10:58:55;;;;;;;29.30;8.50;;;22.30;99.90;;;;;;4232976;27;20267;-73
2022/06/08 11:01:06;;;;;;;31.45;10.60;;;22.20;99.90;;;;;;4236503;27;20205;-75
2022/06/08 11:03:48;;;;;;;33.83;9.10;;;22.20;99.90;;;;;;4239807;27;20217;-74